createdAt,value
2018-04-22T00:01:44.019Z,94.30
2018-04-22T00:04:12.169Z,94.20
2018-04-22T00:06:40.354Z,93.60
2018-04-22T00:09:08.450Z,93.70
2018-04-22T00:11:36.551Z,93.60
2018-04-22T00:14:04.662Z,93.30
2018-04-22T00:16:32.854Z,93.40
2018-04-22T00:19:00.957Z,93.80
2018-04-22T00:21:29.825Z,93.90
2018-04-22T00:23:57.910Z,93.90
2018-04-22T00:26:25.986Z,93.50
2018-04-22T00:28:54.098Z,93.60
2018-04-22T00:31:22.189Z,94.10
2018-04-22T00:33:51.061Z,94.30
2018-04-22T00:36:19.230Z,94.30
2018-04-22T00:38:47.345Z,94.40
2018-04-22T00:41:15.452Z,94.50
2018-04-22T00:43:44.335Z,93.90
2018-04-22T00:46:12.427Z,93.90
2018-04-22T00:48:41.306Z,93.20
2018-04-22T00:51:09.426Z,93.10
2018-04-22T00:53:50.292Z,92.70
2018-04-22T00:56:18.418Z,92.70
2018-04-22T00:58:46.523Z,92.80
2018-04-22T01:01:14.617Z,93.00
2018-04-22T01:03:42.734Z,93.20
2018-04-22T01:06:10.884Z,93.70
2018-04-22T01:08:39.063Z,94.00
2018-04-22T01:11:07.164Z,93.90
2018-04-22T01:13:35.252Z,94.10
2018-04-22T01:16:03.331Z,94.40
2018-04-22T01:18:31.448Z,94.70
2018-04-22T01:20:59.578Z,95.00
2018-04-22T01:23:27.679Z,95.30
2018-04-22T01:25:55.794Z,95.60
2018-04-22T01:28:23.927Z,95.50
2018-04-22T01:30:52.036Z,95.80
2018-04-22T01:33:20.128Z,95.80
2018-04-22T01:35:48.222Z,96.20
2018-04-22T01:38:16.326Z,96.30
2018-04-22T01:40:44.482Z,96.40
2018-04-22T01:43:12.603Z,96.50
2018-04-22T01:45:40.722Z,96.60
2018-04-22T01:48:08.812Z,96.70
2018-04-22T01:50:36.898Z,96.20
2018-04-22T01:53:05.036Z,96.00
2018-04-22T01:55:33.124Z,95.80
2018-04-22T01:58:01.239Z,95.60
2018-04-22T02:00:30.129Z,96.00
2018-04-22T02:02:59.002Z,96.30
2018-04-22T02:05:27.114Z,96.30
2018-04-22T02:07:55.995Z,96.80
2018-04-22T02:10:24.084Z,96.80
2018-04-22T02:12:52.210Z,97.10
2018-04-22T02:15:20.346Z,97.70
2018-04-22T02:17:48.457Z,97.50
2018-04-22T02:20:17.332Z,97.40
2018-04-22T02:22:45.440Z,97.40
2018-04-22T02:25:14.379Z,97.80
2018-04-22T02:27:42.540Z,97.70
2018-04-22T02:30:11.400Z,96.60
2018-04-22T02:32:39.559Z,96.60
2018-04-22T02:35:07.678Z,96.40
2018-04-22T02:37:35.781Z,96.50
2018-04-22T02:40:03.912Z,96.50
2018-04-22T02:42:32.791Z,97.00
2018-04-22T02:45:00.885Z,97.00
2018-04-22T02:47:29.052Z,97.40
2018-04-22T02:49:57.956Z,98.10
2018-04-22T02:52:26.846Z,97.90
2018-04-22T02:54:54.953Z,97.90
2018-04-22T02:57:23.820Z,98.20
2018-04-22T02:59:51.920Z,98.70
2018-04-22T03:02:20.036Z,98.30
2018-04-22T03:04:48.143Z,98.30
2018-04-22T03:07:16.290Z,98.50
2018-04-22T03:09:44.396Z,98.60
2018-04-22T03:12:12.557Z,98.50
2018-04-22T03:14:40.666Z,98.60
2018-04-22T03:17:08.781Z,98.50
2018-04-22T03:19:36.876Z,98.50
2018-04-22T03:22:04.985Z,98.50
2018-04-22T03:24:33.139Z,98.50
2018-04-22T03:27:01.236Z,98.50
2018-04-22T03:29:29.321Z,98.60
2018-04-22T03:31:57.409Z,98.10
2018-04-22T03:34:25.508Z,98.00
2018-04-22T03:36:53.650Z,98.20
2018-04-22T03:39:21.750Z,98.10
2018-04-22T03:41:49.895Z,97.20
2018-04-22T03:44:18.034Z,97.20
2018-04-22T03:46:46.158Z,97.50
2018-04-22T03:49:15.048Z,97.80
2018-04-22T03:51:43.880Z,98.00
2018-04-22T03:54:12.039Z,97.90
2018-04-22T03:56:40.875Z,98.60
2018-04-22T03:59:08.975Z,98.60
2018-04-22T04:01:37.079Z,98.90
2018-04-22T04:04:05.199Z,98.30
2018-04-22T04:06:34.076Z,98.90
2018-04-22T04:09:02.187Z,98.80
2018-04-22T04:11:31.060Z,99.10
2018-04-22T04:13:59.141Z,99.00
2018-04-22T04:16:27.202Z,99.30
2018-04-22T04:19:07.007Z,99.30
2018-04-22T04:21:47.015Z,99.30
2018-04-22T04:27:40.998Z,99.20
2018-04-22T04:30:09.819Z,99.40
2018-04-22T04:32:38.641Z,99.60
2018-04-22T04:35:06.696Z,99.60
2018-04-22T04:37:34.765Z,99.70
2018-04-22T04:40:02.791Z,99.90
2018-04-22T04:42:30.843Z,99.90
2018-04-22T04:44:58.901Z,99.90
2018-04-22T04:47:26.959Z,99.90
2018-04-22T04:49:55.020Z,99.90
2018-04-22T04:52:23.060Z,99.10
2018-04-22T04:54:51.124Z,99.10
2018-04-22T04:57:19.166Z,98.50
2018-04-22T04:59:47.248Z,97.80
2018-04-22T05:02:16.060Z,96.60
2018-04-22T05:04:44.121Z,96.50
2018-04-22T05:07:12.925Z,95.60
2018-04-22T05:09:41.742Z,94.90
2018-04-22T05:12:09.802Z,94.90
2018-04-22T05:14:38.631Z,92.90
2018-04-22T05:17:06.684Z,92.90
2018-04-22T05:19:34.743Z,92.50
2018-04-22T05:22:02.790Z,91.00
2018-04-22T05:24:30.849Z,90.70
2018-04-22T05:26:59.673Z,88.20
2018-04-22T05:29:27.728Z,88.20
2018-04-22T05:31:56.555Z,84.30
2018-04-22T05:34:24.615Z,84.20
2018-04-22T05:36:53.432Z,80.50
2018-04-22T05:39:21.484Z,80.40
2018-04-22T05:41:49.578Z,78.70
2018-04-22T05:44:17.590Z,77.50
2018-04-22T05:46:45.638Z,76.00
2018-04-22T05:49:13.694Z,75.00
2018-04-22T05:51:41.745Z,73.50
2018-04-22T05:54:09.795Z,70.90
2018-04-22T05:56:38.617Z,69.80
2018-04-22T05:59:06.675Z,69.70
2018-04-22T06:01:34.752Z,68.40
2018-04-22T06:04:02.800Z,68.00
2018-04-22T06:06:30.846Z,67.70
2018-04-22T06:08:59.674Z,66.20
2018-04-22T06:11:27.724Z,66.20
2018-04-22T06:13:56.532Z,66.30
2018-04-22T06:16:25.363Z,64.50
2018-04-22T06:18:53.418Z,64.30
2018-04-22T06:21:22.248Z,60.90
2018-04-22T06:23:50.294Z,60.70
2018-04-22T06:26:19.141Z,61.50
2018-04-22T06:28:47.202Z,61.50
2018-04-22T06:31:15.252Z,60.30
2018-04-22T06:33:43.291Z,59.60
2018-04-22T06:36:11.363Z,58.90
2018-04-22T06:38:39.409Z,54.80
2018-04-22T06:41:07.462Z,54.30
2018-04-22T06:43:35.508Z,57.00
2018-04-22T06:46:03.578Z,55.80
2018-04-22T06:48:32.395Z,57.90
2018-04-22T06:51:00.467Z,57.80
2018-04-22T06:53:28.568Z,57.10
2018-04-22T06:55:56.565Z,57.10
2018-04-22T06:58:24.618Z,55.40
2018-04-22T07:00:52.675Z,53.80
2018-04-22T07:03:20.722Z,53.60
2018-04-22T07:05:48.780Z,53.10
2018-04-22T07:08:16.865Z,51.10
2018-04-22T07:10:44.874Z,50.30
2018-04-22T07:13:12.920Z,50.20
2018-04-22T07:15:41.718Z,49.50
2018-04-22T07:18:09.771Z,49.40
2018-04-22T07:20:37.811Z,48.70
2018-04-22T07:23:05.868Z,46.00
2018-04-22T07:25:34.657Z,45.60
2018-04-22T07:28:03.482Z,46.50
2018-04-22T07:30:31.528Z,46.40
2018-04-22T07:32:59.575Z,44.00
2018-04-22T07:38:02.022Z,43.00
2018-04-22T07:40:30.055Z,44.20
2018-04-22T07:42:58.097Z,42.30
2018-04-22T07:45:26.142Z,40.20
2018-04-22T07:47:54.201Z,42.00
2018-04-22T07:50:22.245Z,41.90
2018-04-22T07:52:50.307Z,41.80
2018-04-22T07:55:18.371Z,41.90
2018-04-22T07:57:46.423Z,42.10
2018-04-22T08:00:15.236Z,41.80
2018-04-22T08:02:44.050Z,41.90
2018-04-22T08:05:12.088Z,41.80
2018-04-22T08:07:40.127Z,41.70
2018-04-22T08:10:08.178Z,43.10
2018-04-22T08:12:36.992Z,41.20
2018-04-22T08:15:05.031Z,41.10
2018-04-22T08:17:33.082Z,43.00
2018-04-22T08:20:01.155Z,41.50
2018-04-22T08:22:29.204Z,39.20
2018-04-22T08:24:58.022Z,36.40
2018-04-22T08:27:26.835Z,37.40
2018-04-22T08:29:54.878Z,37.30
2018-04-22T08:32:22.920Z,36.70
2018-04-22T08:34:50.964Z,36.40
2018-04-22T08:37:19.786Z,36.90
2018-04-22T08:39:47.855Z,36.90
2018-04-22T08:42:16.710Z,38.40
2018-04-22T08:44:44.753Z,38.40
2018-04-22T08:47:12.788Z,36.80
2018-04-22T08:49:40.847Z,37.50
2018-04-22T08:52:08.902Z,37.60
2018-04-22T08:54:36.948Z,38.00
2018-04-22T08:57:05.046Z,35.10
2018-04-22T08:59:33.093Z,36.50
2018-04-22T09:02:01.162Z,36.30
2018-04-22T09:04:29.207Z,35.10
2018-04-22T09:06:58.010Z,35.50
2018-04-22T09:09:26.838Z,36.00
2018-04-22T09:11:54.874Z,36.00
2018-04-22T09:14:22.912Z,34.50
2018-04-22T09:16:50.983Z,34.50
2018-04-22T09:19:19.052Z,31.40
2018-04-22T09:21:47.857Z,31.30
2018-04-22T09:24:16.670Z,34.00
2018-04-22T09:26:44.718Z,34.00
2018-04-22T09:29:12.808Z,34.70
2018-04-22T09:31:40.878Z,35.50
2018-04-22T09:34:08.956Z,34.00
2018-04-22T09:36:37.065Z,34.70
2018-04-22T09:39:05.915Z,36.00
2018-04-22T09:41:34.009Z,35.90
2018-04-22T09:44:02.095Z,32.50
2018-04-22T09:46:30.229Z,34.70
2018-04-22T09:48:59.067Z,35.80
2018-04-22T09:51:27.165Z,35.70
2018-04-22T09:53:55.258Z,33.10
2018-04-22T09:56:23.331Z,33.30
2018-04-22T09:58:51.413Z,35.80
2018-04-22T10:01:19.486Z,34.40
2018-04-22T10:03:47.584Z,33.10
2018-04-22T10:06:15.664Z,33.40
2018-04-22T10:08:43.722Z,31.90
2018-04-22T10:13:41.173Z,37.30
2018-04-22T10:16:10.825Z,38.60
2018-04-22T10:18:39.695Z,40.40
2018-04-22T10:21:07.800Z,40.40
2018-04-22T10:23:35.954Z,36.90
2018-04-22T10:26:04.088Z,38.10
2018-04-22T10:28:32.943Z,39.40
2018-04-22T10:31:01.053Z,39.40
2018-04-22T10:33:29.167Z,41.00
2018-04-22T10:35:58.040Z,40.80
2018-04-22T10:38:26.115Z,40.80
2018-04-22T10:40:54.457Z,38.30
2018-04-22T10:43:22.540Z,40.80
2018-04-22T10:45:50.643Z,42.60
2018-04-22T10:48:18.737Z,42.70
2018-04-22T10:50:46.820Z,41.80
2018-04-22T10:53:14.889Z,40.70
2018-04-22T10:55:42.960Z,38.00
2018-04-22T10:58:11.026Z,36.90
2018-04-22T11:00:39.861Z,34.10
2018-04-22T11:03:07.963Z,35.40
2018-04-22T11:05:36.103Z,42.70
2018-04-22T11:08:04.946Z,38.70
2018-04-22T11:10:33.017Z,38.60
2018-04-22T11:13:01.130Z,33.60
2018-04-22T11:15:29.206Z,35.30
2018-04-22T11:17:57.306Z,35.50
2018-04-22T11:20:25.362Z,34.20
2018-04-22T11:22:53.440Z,32.50
2018-04-22T11:25:21.529Z,31.90
2018-04-22T11:27:49.608Z,30.40
2018-04-22T11:30:17.713Z,32.40
2018-04-22T11:32:45.810Z,35.00
2018-04-22T11:35:13.915Z,34.00
2018-04-22T11:37:42.019Z,33.20
2018-04-22T11:40:10.862Z,33.40
2018-04-22T11:42:38.948Z,33.30
2018-04-22T11:45:07.020Z,32.60
2018-04-22T11:47:35.098Z,31.90
2018-04-22T11:50:03.174Z,29.70
2018-04-22T11:52:31.254Z,32.80
2018-04-22T11:54:59.347Z,33.60
2018-04-22T11:57:27.431Z,33.70
2018-04-22T11:59:55.554Z,28.80
2018-04-22T12:02:23.619Z,31.90
2018-04-22T12:04:51.687Z,31.00
2018-04-22T12:07:19.772Z,29.30
2018-04-22T12:09:47.867Z,30.00
2018-04-22T12:12:15.930Z,28.40
2018-04-22T12:14:44.037Z,27.90
2018-04-22T12:17:12.847Z,28.10
2018-04-22T12:19:40.914Z,28.10
2018-04-22T12:22:09.028Z,28.20
2018-04-22T12:24:37.144Z,26.60
2018-04-22T12:27:05.286Z,26.70
2018-04-22T12:29:33.343Z,29.40
2018-04-22T12:32:01.415Z,27.90
2018-04-22T12:34:29.507Z,27.40
2018-04-22T12:36:57.591Z,28.00
2018-04-22T12:39:25.728Z,28.50
2018-04-22T12:41:53.794Z,27.00
2018-04-22T12:44:21.903Z,26.10
2018-04-22T12:46:50.001Z,28.10
2018-04-22T12:49:18.092Z,27.70
2018-04-22T12:51:46.153Z,26.80
2018-04-22T12:54:14.234Z,26.20
2018-04-22T12:56:42.336Z,26.70
2018-04-22T12:59:10.430Z,26.60
2018-04-22T13:01:39.329Z,25.50
2018-04-22T13:04:07.415Z,25.50
2018-04-22T13:06:35.496Z,25.70
2018-04-22T13:09:06.026Z,27.20
2018-04-22T13:11:34.128Z,27.20
2018-04-22T13:14:03.006Z,27.00
2018-04-22T13:16:31.111Z,26.90
2018-04-22T13:18:59.187Z,28.50
2018-04-22T13:21:27.272Z,26.20
2018-04-22T13:23:55.365Z,25.50
2018-04-22T13:26:23.460Z,25.90
2018-04-22T13:28:52.315Z,27.20
2018-04-22T13:31:20.667Z,27.20
2018-04-22T13:33:48.757Z,29.70
2018-04-22T13:36:16.864Z,30.30
2018-04-22T13:38:44.959Z,32.40
2018-04-22T13:41:13.042Z,33.10
2018-04-22T13:43:41.195Z,33.90
2018-04-22T13:46:09.341Z,32.40
2018-04-22T13:48:38.232Z,35.10
2018-04-22T13:51:06.296Z,35.10
2018-04-22T13:53:34.389Z,34.80
2018-04-22T13:56:02.539Z,35.60
2018-04-22T13:58:31.364Z,36.30
2018-04-22T14:00:59.467Z,35.50
2018-04-22T14:03:27.576Z,34.80
2018-04-22T14:05:55.675Z,33.20
2018-04-22T14:08:24.500Z,29.70
2018-04-22T14:10:52.592Z,29.60
2018-04-22T14:13:20.675Z,30.30
2018-04-22T14:15:48.730Z,29.10
2018-04-22T14:18:17.608Z,29.10
2018-04-22T14:20:45.726Z,29.10
2018-04-22T14:23:14.579Z,28.60
2018-04-22T14:25:42.679Z,28.50
2018-04-22T14:28:10.750Z,29.30
2018-04-22T14:30:38.855Z,29.90
2018-04-22T14:33:06.958Z,29.70
2018-04-22T14:35:35.822Z,31.80
2018-04-22T14:38:03.960Z,31.70
2018-04-22T14:40:32.075Z,31.10
2018-04-22T14:43:00.181Z,31.80
2018-04-22T14:45:53.935Z,32.90
2018-04-22T14:48:22.008Z,33.10
2018-04-22T14:50:50.079Z,34.00
2018-04-22T14:53:18.911Z,29.80
2018-04-22T14:55:46.983Z,29.80
2018-04-22T14:58:15.083Z,30.20
2018-04-22T15:00:43.183Z,29.70
2018-04-22T15:03:11.278Z,29.90
2018-04-22T15:05:39.460Z,32.40
2018-04-22T15:08:07.573Z,32.40
2018-04-22T15:10:35.670Z,34.50
2018-04-22T15:40:26.705Z,31.60
2018-04-22T15:42:54.820Z,35.50
2018-04-22T15:45:22.896Z,33.00
2018-04-22T15:47:51.736Z,33.30
2018-04-22T15:50:19.845Z,33.30
2018-04-22T15:52:47.919Z,34.80
2018-04-22T15:55:16.010Z,37.20
2018-04-22T15:57:44.091Z,34.10
2018-04-22T16:00:12.188Z,34.00
2018-04-22T16:02:40.302Z,34.00
2018-04-22T16:05:08.394Z,36.30
2018-04-22T16:07:37.247Z,33.40
2018-04-22T16:10:05.323Z,33.20
2018-04-22T16:12:33.399Z,32.90
2018-04-22T16:15:01.494Z,33.00
2018-04-22T16:17:29.653Z,33.20
2018-04-22T16:19:57.749Z,33.10
2018-04-22T16:22:25.890Z,33.10
2018-04-22T16:24:53.987Z,32.00
2018-04-22T16:27:22.124Z,33.20
2018-04-22T16:29:50.201Z,34.20
2018-04-22T16:32:18.277Z,34.00
2018-04-22T16:34:46.339Z,33.20
2018-04-22T16:37:14.441Z,33.70
2018-04-22T16:39:42.537Z,35.10
2018-04-22T16:42:10.636Z,34.20
2018-04-22T16:44:38.770Z,34.30
2018-04-22T16:47:06.863Z,34.00
2018-04-22T16:49:34.994Z,34.30
2018-04-22T16:52:03.079Z,35.30
2018-04-22T16:54:31.184Z,35.00
2018-04-22T16:56:59.276Z,34.40
2018-04-22T16:59:28.106Z,35.00
2018-04-22T17:01:56.522Z,35.00
2018-04-22T17:04:24.611Z,34.50
2018-04-22T17:06:52.718Z,35.00
2018-04-22T17:09:20.810Z,35.50
2018-04-22T17:11:48.985Z,37.30
2018-04-22T17:14:17.096Z,38.10
2018-04-22T17:16:45.956Z,37.70
2018-04-22T17:19:14.077Z,37.60
2018-04-22T17:21:42.233Z,38.00
2018-04-22T17:24:10.358Z,37.70
2018-04-22T17:26:38.422Z,41.50
2018-04-22T17:29:06.536Z,43.10
2018-04-22T17:31:35.397Z,45.10
2018-04-22T17:34:03.490Z,45.10
2018-04-22T17:36:32.361Z,46.70
2018-04-22T17:39:00.443Z,46.70
2018-04-22T17:41:28.592Z,46.50
2018-04-22T17:43:56.680Z,46.80
2018-04-22T17:46:25.542Z,47.50
2018-04-22T17:48:53.620Z,47.40
2018-04-22T17:51:21.722Z,48.20
2018-04-22T17:53:49.812Z,48.50
2018-04-22T17:56:17.929Z,47.90
2018-04-22T17:58:46.785Z,47.60
2018-04-22T18:01:14.879Z,47.50
2018-04-22T18:03:43.035Z,47.30
2018-04-22T18:06:11.130Z,46.00
2018-04-22T18:08:39.256Z,44.10
2018-04-22T18:11:08.155Z,44.00
2018-04-22T18:13:37.000Z,43.00
2018-04-22T18:16:05.188Z,42.90
2018-04-22T18:18:33.296Z,43.20
2018-04-22T18:21:01.416Z,46.00
2018-04-22T18:23:30.286Z,44.10
2018-04-22T18:25:58.408Z,43.90
2018-04-22T18:28:26.555Z,46.60
2018-04-22T18:30:54.659Z,46.30
2018-04-22T18:33:22.764Z,45.80
2018-04-22T18:35:50.942Z,46.60
2018-04-22T18:38:19.052Z,47.30
2018-04-22T18:40:47.923Z,48.10
2018-04-22T18:43:16.032Z,47.90
2018-04-22T18:45:44.895Z,48.40
2018-04-22T18:48:13.078Z,48.50
2018-04-22T18:50:41.197Z,48.20
2018-04-22T18:53:09.284Z,49.20
2018-04-22T18:55:38.203Z,49.30
2018-04-22T18:58:07.077Z,49.40
2018-04-22T19:00:35.180Z,49.40
2018-04-22T19:03:04.029Z,50.80
2018-04-22T19:05:32.177Z,50.70
2018-04-22T19:08:01.033Z,52.30
2018-04-22T19:10:29.129Z,52.20
2018-04-22T19:12:57.228Z,50.90
2018-04-22T19:15:25.300Z,51.40
2018-04-22T19:17:53.394Z,53.20
2018-04-22T19:20:21.481Z,53.40
2018-04-22T19:22:49.597Z,53.00
2018-04-22T19:25:17.685Z,53.30
2018-04-22T19:27:45.796Z,54.50
2018-04-22T19:30:13.891Z,54.20
2018-04-22T19:32:41.994Z,54.10
2018-04-22T19:35:10.082Z,54.30
2018-04-22T19:37:38.171Z,53.90
2018-04-22T19:40:06.267Z,53.80
2018-04-22T19:42:35.168Z,53.80
2018-04-22T19:45:03.257Z,53.70
2018-04-22T19:47:32.116Z,53.40
2018-04-22T19:50:00.216Z,53.40
2018-04-22T19:52:28.371Z,54.80
2018-04-22T19:54:56.454Z,54.90
2018-04-22T19:57:24.540Z,55.30
2018-04-22T19:59:52.648Z,55.30
2018-04-22T20:02:20.760Z,55.40
2018-04-22T20:04:48.860Z,55.30
2018-04-22T20:07:16.994Z,56.60
2018-04-22T20:09:45.087Z,59.40
2018-04-22T20:12:13.258Z,60.30
2018-04-22T20:14:41.341Z,62.90
2018-04-22T20:17:09.441Z,62.40
2018-04-22T20:19:37.539Z,62.80
2018-04-22T20:22:05.692Z,63.20
2018-04-22T20:24:33.795Z,62.90
2018-04-22T20:27:01.902Z,62.40
2018-04-22T20:29:29.970Z,61.60
2018-04-22T20:31:58.090Z,59.90
2018-04-22T20:34:26.938Z,60.20
2018-04-22T20:36:55.036Z,60.20
2018-04-22T20:39:23.473Z,60.40
2018-04-22T20:41:52.845Z,60.60
2018-04-22T20:44:21.385Z,60.10
2018-04-22T20:46:50.903Z,60.00
2018-04-22T20:49:19.946Z,60.00
2018-04-22T20:51:48.405Z,59.90
2018-04-22T20:54:17.757Z,60.50
2018-04-22T20:56:46.005Z,60.40
2018-04-22T20:59:14.503Z,61.10
2018-04-22T21:01:42.944Z,61.70
2018-04-22T21:04:11.523Z,61.50
2018-04-22T21:06:40.187Z,62.00
2018-04-22T21:09:09.397Z,61.20
2018-04-22T21:11:37.838Z,61.10
2018-04-22T21:14:06.342Z,61.10
2018-04-22T21:16:35.271Z,60.20
2018-04-22T21:19:03.351Z,60.20
2018-04-22T21:21:31.483Z,59.70
2018-04-22T21:23:59.628Z,60.00
2018-04-22T21:26:27.847Z,59.60
2018-04-22T21:28:56.731Z,59.90
2018-04-22T21:31:24.844Z,59.70
2018-04-22T21:33:53.001Z,59.60
2018-04-22T21:36:21.062Z,59.40
2018-04-22T21:38:49.179Z,59.40
2018-04-22T21:41:18.018Z,59.20
2018-04-22T21:43:46.118Z,59.10
2018-04-22T21:46:14.203Z,59.20
2018-04-22T21:48:42.301Z,59.10
2018-04-22T21:51:10.394Z,59.20
2018-04-22T21:53:38.487Z,59.30
2018-04-22T21:56:06.577Z,59.50
2018-04-22T21:58:34.674Z,58.70
2018-04-22T22:01:03.536Z,57.90
2018-04-22T22:03:31.691Z,57.90
2018-04-22T22:05:59.815Z,57.60
2018-04-22T22:08:28.038Z,57.30
2018-04-22T22:10:56.887Z,56.60
2018-04-22T22:13:25.011Z,56.60
2018-04-22T22:15:53.111Z,57.10
2018-04-22T22:18:21.202Z,57.60
2018-04-22T22:20:50.103Z,58.40
2018-04-22T22:23:18.951Z,58.50
2018-04-22T22:25:47.053Z,58.30
2018-04-22T22:28:15.118Z,58.70
2018-04-22T22:30:43.232Z,58.50
2018-04-22T22:33:11.313Z,58.50
2018-04-22T22:35:39.423Z,58.90
2018-04-22T22:38:08.278Z,57.70
2018-04-22T22:40:36.521Z,57.70
2018-04-22T22:43:04.724Z,58.10
2018-04-22T22:45:32.820Z,57.70
2018-04-22T22:48:00.939Z,58.00
2018-04-22T22:50:29.048Z,58.00
2018-04-22T22:52:57.909Z,57.90
2018-04-22T22:55:25.990Z,57.80
2018-04-22T22:57:54.127Z,58.20
2018-04-22T23:00:22.995Z,58.20
2018-04-22T23:02:51.141Z,58.20
2018-04-22T23:05:19.193Z,58.10
2018-04-22T23:07:47.276Z,58.40
2018-04-22T23:10:16.137Z,56.70
2018-04-22T23:12:44.229Z,56.70
2018-04-22T23:15:12.320Z,56.80
2018-04-22T23:17:40.409Z,57.40
2018-04-22T23:20:08.524Z,57.40
2018-04-22T23:22:37.388Z,57.40
2018-04-22T23:25:05.478Z,57.40
2018-04-22T23:27:33.583Z,57.10
2018-04-22T23:30:01.679Z,56.70
2018-04-22T23:32:30.679Z,55.90
2018-04-22T23:34:58.714Z,55.90
2018-04-22T23:37:26.819Z,56.00
2018-04-22T23:39:54.940Z,55.90
2018-04-22T23:42:23.787Z,56.20
2018-04-22T23:44:51.885Z,56.20
2018-04-22T23:47:19.987Z,57.00
2018-04-22T23:49:48.092Z,57.40
2018-04-22T23:52:16.936Z,57.90
2018-04-22T23:54:45.029Z,57.30
2018-04-22T23:57:13.130Z,58.40
2018-04-22T23:59:41.244Z,60.20
